createdAt,value
2022-12-25T00:03:38.655Z,99972.63
2022-12-25T00:08:47.245Z,99972.81
2022-12-25T00:13:55.802Z,99981.82
2022-12-25T00:19:04.143Z,99992.04
2022-12-25T00:24:13.251Z,99996.90
2022-12-25T00:29:22.257Z,100000.70
2022-12-25T00:34:30.768Z,100003.82
2022-12-25T00:39:39.364Z,100010.23
2022-12-25T00:44:48.232Z,100015.79
2022-12-25T00:49:57.012Z,100025.48
2022-12-25T00:55:06.001Z,100025.32
2022-12-25T01:00:17.101Z,100023.06
2022-12-25T01:05:25.695Z,100021.50
2022-12-25T01:10:33.980Z,100031.39
2022-12-25T01:15:42.420Z,100039.54
2022-12-25T01:20:50.606Z,100041.45
2022-12-25T01:25:58.901Z,100044.23
2022-12-25T01:31:07.687Z,100048.04
2022-12-25T01:36:19.470Z,100053.57
2022-12-25T01:41:29.038Z,100060.16
2022-12-25T01:46:38.095Z,100070.39
2022-12-25T01:51:50.007Z,100075.75
2022-12-25T01:57:03.327Z,100075.59
2022-12-25T02:02:12.052Z,100080.95
2022-12-25T02:07:22.572Z,100080.44
2022-12-25T02:12:34.860Z,100085.11
2022-12-25T02:17:44.556Z,100077.65
2022-12-25T02:23:07.321Z,100068.81
2022-12-25T02:28:23.634Z,100068.64
2022-12-25T02:33:57.354Z,100072.10
2022-12-25T02:39:26.745Z,100072.62
2022-12-25T02:44:55.554Z,100074.69
2022-12-25T02:50:23.866Z,100079.72
2022-12-25T02:55:54.328Z,100082.67
2022-12-25T03:01:26.206Z,100078.15
2022-12-25T03:06:46.990Z,100078.48
2022-12-25T03:12:03.601Z,100088.73
2022-12-25T03:17:12.414Z,100100.36
2022-12-25T03:22:45.693Z,100106.25
2022-12-25T03:27:56.412Z,100112.66
2022-12-25T03:33:37.191Z,100110.92
2022-12-25T03:39:13.949Z,100115.61
2022-12-25T03:44:41.431Z,100119.42
2022-12-25T03:50:15.676Z,100108.33
2022-12-25T03:55:57.178Z,100105.70
2022-12-25T04:01:24.525Z,100117.52
2022-12-25T04:06:50.499Z,100110.40
2022-12-25T04:12:16.532Z,100108.64
2022-12-25T04:17:44.551Z,100109.69
2022-12-25T04:23:10.776Z,100112.64
2022-12-25T04:28:35.686Z,100126.35
2022-12-25T04:34:02.976Z,100130.35
2022-12-25T04:39:12.756Z,100123.05
2022-12-25T04:44:21.147Z,100126.01
2022-12-25T04:49:29.483Z,100130.51
2022-12-25T04:54:39.063Z,100110.58
2022-12-25T04:59:47.356Z,100127.04
2022-12-25T05:04:55.813Z,100123.40
2022-12-25T05:10:04.014Z,100121.15
2022-12-25T05:15:13.265Z,100126.69
2022-12-25T05:20:22.305Z,100126.17
2022-12-25T05:25:30.713Z,100131.89
2022-12-25T05:30:39.259Z,100131.55
2022-12-25T05:35:47.569Z,100122.53
2022-12-25T05:40:56.544Z,100127.56
2022-12-25T05:46:09.537Z,100131.39
2022-12-25T05:51:18.691Z,100133.11
2022-12-25T05:56:27.036Z,100132.08
2022-12-25T06:01:35.582Z,100128.60
2022-12-25T06:06:44.122Z,100149.95
2022-12-25T06:11:52.412Z,100149.95
2022-12-25T06:17:01.171Z,100151.17
2022-12-25T06:22:10.166Z,100158.64
2022-12-25T06:27:18.859Z,100166.45
2022-12-25T06:32:27.257Z,100177.38
2022-12-25T06:37:35.838Z,100194.02
2022-12-25T06:42:44.398Z,100208.44
2022-12-25T06:47:52.616Z,100216.95
2022-12-25T06:53:01.598Z,100219.72
2022-12-25T06:58:10.172Z,100232.74
2022-12-25T07:03:24.150Z,100246.45
2022-12-25T07:08:32.674Z,100257.38
2022-12-25T07:13:42.155Z,100269.70
2022-12-25T07:18:50.556Z,100275.42
2022-12-25T07:23:58.842Z,100281.49
2022-12-25T07:29:07.220Z,100286.00
2022-12-25T07:34:15.467Z,100294.34
2022-12-25T07:39:24.080Z,100302.33
2022-12-25T07:44:32.316Z,100305.27
2022-12-25T07:49:40.559Z,100313.09
2022-12-25T07:54:48.950Z,100317.59
2022-12-25T07:59:57.376Z,100320.04
2022-12-25T08:05:06.047Z,100315.86
2022-12-25T08:10:15.204Z,100313.44
2022-12-25T08:15:24.171Z,100319.14
2022-12-25T08:20:32.308Z,100324.20
2022-12-25T08:25:40.934Z,100330.27
2022-12-25T08:30:49.334Z,100336.86
2022-12-25T08:36:03.291Z,100339.48
2022-12-25T08:41:12.694Z,100341.73
2022-12-25T08:46:21.238Z,100343.64
2022-12-25T08:51:30.135Z,100352.33
2022-12-25T08:56:38.966Z,100358.23
2022-12-25T09:01:47.414Z,100358.75
2022-12-25T09:06:56.388Z,100371.94
2022-12-25T09:12:05.463Z,100373.50
2022-12-25T09:17:14.121Z,100378.88
2022-12-25T09:22:22.821Z,100379.77
2022-12-25T09:27:31.336Z,100393.46
2022-12-25T09:32:41.748Z,100394.52
2022-12-25T09:37:50.081Z,100396.42
2022-12-25T09:43:00.204Z,100401.13
2022-12-25T09:48:15.024Z,100395.54
2022-12-25T09:53:27.585Z,100393.80
2022-12-25T09:58:37.296Z,100394.84
2022-12-25T10:04:06.483Z,100385.80
2022-12-25T10:09:40.919Z,100378.14
2022-12-25T10:15:03.948Z,100382.49
2022-12-25T10:20:25.715Z,100389.95
2022-12-25T10:25:37.960Z,100386.81
2022-12-25T10:30:48.062Z,100387.52
2022-12-25T10:35:55.575Z,100389.26
2022-12-25T10:41:20.839Z,100385.25
2022-12-25T10:46:31.065Z,100386.63
2022-12-25T10:51:41.213Z,100367.54
2022-12-25T10:56:59.022Z,100376.20
2022-12-25T11:02:23.099Z,100384.88
2022-12-25T11:07:32.632Z,100396.52
2022-12-25T11:12:45.302Z,100401.91
2022-12-25T11:17:54.058Z,100395.30
2022-12-25T11:23:03.637Z,100396.70
2022-12-25T11:28:15.378Z,100400.52
2022-12-25T11:33:29.640Z,100391.15
2022-12-25T11:38:38.820Z,100396.02
2022-12-25T11:43:53.193Z,100383.83
2022-12-25T11:49:04.188Z,100378.61
2022-12-25T11:54:22.369Z,100365.21
2022-12-25T11:59:36.505Z,100371.10
2022-12-25T12:04:49.802Z,100372.13
2022-12-25T12:10:11.918Z,100382.55
2022-12-25T12:15:29.371Z,100382.21
2022-12-25T12:20:39.178Z,100389.34
2022-12-25T12:25:50.641Z,100396.47
2022-12-25T12:31:07.577Z,100400.12
2022-12-25T12:36:25.018Z,100411.96
2022-12-25T12:41:51.415Z,100413.35
2022-12-25T12:47:00.382Z,100407.63
2022-12-25T12:52:25.970Z,100413.34
2022-12-25T12:57:40.299Z,100412.45
2022-12-25T13:03:08.047Z,100399.07
2022-12-25T13:08:37.129Z,100411.59
2022-12-25T13:13:47.901Z,100411.73
2022-12-25T13:18:58.029Z,100414.17
2022-12-25T13:24:10.629Z,100420.27
2022-12-25T13:29:30.967Z,100420.77
2022-12-25T13:34:42.193Z,100420.78
2022-12-25T13:39:56.579Z,100424.42
2022-12-25T13:45:07.286Z,100432.78
2022-12-25T13:50:23.479Z,100430.52
2022-12-25T13:55:35.358Z,100440.95
2022-12-25T14:00:50.641Z,100436.27
2022-12-25T14:06:04.285Z,100437.15
2022-12-25T14:11:16.253Z,100439.06
2022-12-25T14:16:25.708Z,100437.15
2022-12-25T14:21:38.858Z,100434.02
2022-12-25T14:26:47.512Z,100439.77
2022-12-25T14:31:59.269Z,100440.98
2022-12-25T14:37:11.690Z,100435.42
2022-12-25T14:42:26.657Z,100435.23
2022-12-25T14:47:42.494Z,100427.42
2022-12-25T14:52:51.210Z,100421.70
2022-12-25T14:58:05.042Z,100431.27
2022-12-25T15:03:25.295Z,100436.30
2022-12-25T15:08:35.873Z,100455.27
2022-12-25T15:13:44.810Z,100454.41
2022-12-25T15:18:54.915Z,100457.52
2022-12-25T15:24:04.483Z,100467.96
2022-12-25T15:29:13.025Z,100469.36
2022-12-25T15:34:22.646Z,100475.78
2022-12-25T15:39:31.358Z,100481.36
2022-12-25T15:44:40.754Z,100485.54
2022-12-25T15:49:49.693Z,100490.23
2022-12-25T15:54:58.215Z,100498.74
2022-12-25T16:00:07.817Z,100500.65
2022-12-25T16:05:22.446Z,100498.41
2022-12-25T16:10:36.573Z,100500.14
2022-12-25T16:15:47.860Z,100489.87
2022-12-25T16:20:56.859Z,100480.15
2022-12-25T16:26:05.349Z,100476.67
2022-12-25T16:31:14.403Z,100472.51
2022-12-25T16:36:26.949Z,100460.52
2022-12-25T16:41:37.097Z,100465.38
2022-12-25T16:46:46.637Z,100464.17
2022-12-25T16:51:55.104Z,100468.34
2022-12-25T16:57:03.580Z,100478.42
2022-12-25T17:02:15.844Z,100477.21
2022-12-25T17:07:24.706Z,100477.90
2022-12-25T17:12:32.969Z,100476.50
2022-12-25T17:17:42.127Z,100479.28
2022-12-25T17:22:52.446Z,100478.60
2022-12-25T17:28:01.105Z,100481.02
2022-12-25T17:33:08.674Z,100480.52
2022-12-25T17:38:17.302Z,100467.14
2022-12-25T17:43:26.841Z,100461.22
2022-12-25T17:48:37.309Z,100456.86
2022-12-25T17:53:47.746Z,100457.39
2022-12-25T17:58:57.921Z,100460.70
2022-12-25T18:04:07.370Z,100467.83
2022-12-25T18:09:16.476Z,100465.03
2022-12-25T18:14:26.078Z,100459.99
2022-12-25T18:19:35.177Z,100456.34
2022-12-25T18:24:44.107Z,100453.73
2022-12-25T18:29:52.645Z,100443.65
2022-12-25T18:35:01.848Z,100443.98
2022-12-25T18:40:12.210Z,100447.13
2022-12-25T18:45:22.101Z,100444.52
2022-12-25T18:50:30.579Z,100443.31
2022-12-25T18:55:42.151Z,100443.84
2022-12-25T19:00:51.014Z,100443.31
2022-12-25T19:05:59.232Z,100440.87
2022-12-25T19:11:12.037Z,100440.00
2022-12-25T19:16:20.998Z,100441.91
2022-12-25T19:21:29.315Z,100434.08
2022-12-25T19:26:38.155Z,100428.18
2022-12-25T19:31:47.631Z,100420.00
2022-12-25T19:36:56.453Z,100416.53
2022-12-25T19:42:05.331Z,100421.73
2022-12-25T19:47:13.978Z,100419.30
2022-12-25T19:52:22.884Z,100418.08
2022-12-25T19:57:31.614Z,100408.35
2022-12-25T20:02:39.938Z,100401.20
2022-12-25T20:07:49.071Z,100397.39
2022-12-25T20:12:57.549Z,100397.73
2022-12-25T20:18:06.183Z,100393.03
2022-12-25T20:23:15.148Z,100391.98
2022-12-25T20:28:23.567Z,100388.34
2022-12-25T20:33:31.729Z,100390.23
2022-12-25T20:38:40.469Z,100382.58
2022-12-25T20:43:49.361Z,100375.98
2022-12-25T20:48:57.597Z,100373.55
2022-12-25T20:54:10.022Z,100373.37
2022-12-25T20:59:18.633Z,100370.58
2022-12-25T21:04:27.544Z,100371.63
2022-12-25T21:09:36.519Z,100372.48
2022-12-25T21:14:45.191Z,100375.08
2022-12-25T21:19:54.290Z,100365.67
2022-12-25T21:25:03.253Z,100367.24
2022-12-25T21:30:15.192Z,100367.94
2022-12-25T21:35:24.775Z,100358.88
2022-12-25T21:40:35.634Z,100360.78
2022-12-25T21:45:44.324Z,100351.73
2022-12-25T21:51:10.579Z,100339.37
2022-12-25T21:56:19.563Z,100329.98
2022-12-25T22:01:29.911Z,100320.06
2022-12-25T22:06:57.482Z,100305.08
2022-12-25T22:12:31.921Z,100305.42
2022-12-25T22:18:02.784Z,100302.64
2022-12-25T22:23:11.495Z,100302.46
2022-12-25T22:28:20.964Z,100296.54
2022-12-25T22:33:29.392Z,100286.63
2022-12-25T22:38:38.834Z,100275.49
2022-12-25T22:44:16.657Z,100264.88
2022-12-25T22:49:17.637Z,100247.98
2022-12-25T22:54:27.440Z,100236.84
2022-12-25T22:59:37.464Z,100225.86
2022-12-25T23:04:46.945Z,100218.21
2022-12-25T23:09:55.162Z,100217.16
2022-12-25T23:15:03.655Z,100202.03
2022-12-25T23:20:32.158Z,100194.89
2022-12-25T23:25:58.117Z,100190.70
2022-12-25T23:31:06.565Z,100181.48
2022-12-25T23:36:15.382Z,100174.54
2022-12-25T23:41:24.106Z,100181.83
2022-12-25T23:46:32.837Z,100179.73
2022-12-25T23:51:44.194Z,100184.96
2022-12-25T23:56:52.650Z,100187.92
